createdAt,value
2023-02-22T00:00:44.530Z,1.25
2023-02-22T00:03:15.724Z,1.02
2023-02-22T00:05:47.205Z,1.02
2023-02-22T00:08:15.151Z,0.93
2023-02-22T00:10:41.697Z,1.10
2023-02-22T00:13:09.330Z,0.85
2023-02-22T00:15:35.918Z,0.90
2023-02-22T00:18:02.874Z,0.98
2023-02-22T00:20:29.602Z,0.85
2023-02-22T00:23:02.586Z,0.90
2023-02-22T00:25:29.095Z,0.90
2023-02-22T00:27:56.323Z,1.10
2023-02-22T00:30:24.492Z,0.90
2023-02-22T00:32:51.117Z,0.90
2023-02-22T00:35:18.844Z,1.00
2023-02-22T00:37:48.044Z,0.88
2023-02-22T00:40:16.684Z,0.95
2023-02-22T00:42:43.233Z,1.08
2023-02-22T00:45:09.793Z,1.00
2023-02-22T00:47:36.333Z,1.00
2023-02-22T00:50:02.927Z,1.17
2023-02-22T00:52:29.583Z,1.10
2023-02-22T00:54:57.938Z,0.90
2023-02-22T00:57:24.783Z,0.93
2023-02-22T00:59:51.363Z,0.80
2023-02-22T01:02:17.988Z,1.00
2023-02-22T01:04:44.688Z,0.90
2023-02-22T01:07:11.584Z,0.90
2023-02-22T01:09:39.672Z,1.10
2023-02-22T01:12:06.446Z,0.90
2023-02-22T01:14:33.103Z,0.90
2023-02-22T01:16:59.703Z,0.90
2023-02-22T01:19:26.627Z,0.80
2023-02-22T01:21:54.763Z,0.80
2023-02-22T01:24:21.342Z,1.17
2023-02-22T01:26:52.062Z,0.90
2023-02-22T01:29:19.526Z,1.00
2023-02-22T01:31:51.099Z,0.98
2023-02-22T01:34:18.429Z,0.80
2023-02-22T01:36:45.081Z,0.65
2023-02-22T01:39:11.760Z,0.82
2023-02-22T01:41:39.161Z,1.08
2023-02-22T01:44:28.873Z,0.95
2023-02-22T01:46:56.584Z,0.93
2023-02-22T01:49:27.700Z,0.90
2023-02-22T01:51:56.599Z,0.90
2023-02-22T01:54:26.300Z,1.17
2023-02-22T01:56:57.897Z,0.82
2023-02-22T01:59:24.577Z,0.90
2023-02-22T02:01:51.199Z,0.68
2023-02-22T02:04:20.635Z,0.77
2023-02-22T02:06:47.297Z,0.98
2023-02-22T02:09:20.696Z,0.90
2023-02-22T02:11:47.413Z,0.85
2023-02-22T02:14:14.539Z,1.20
2023-02-22T02:16:43.729Z,0.90
2023-02-22T02:19:18.463Z,0.88
2023-02-22T02:22:01.680Z,0.80
2023-02-22T02:24:30.924Z,0.75
2023-02-22T02:26:57.521Z,0.70
2023-02-22T02:29:42.779Z,1.15
2023-02-22T02:32:21.754Z,0.80
2023-02-22T02:35:03.718Z,1.00
2023-02-22T02:37:30.260Z,1.00
2023-02-22T02:40:05.062Z,0.90
2023-02-22T02:42:35.000Z,0.85
2023-02-22T02:45:05.742Z,0.70
2023-02-22T02:47:35.399Z,0.80
2023-02-22T02:50:08.028Z,0.68
2023-02-22T02:52:35.427Z,0.90
2023-02-22T02:55:04.080Z,0.90
2023-02-22T02:57:30.700Z,0.90
2023-02-22T02:59:57.165Z,0.82
2023-02-22T03:02:34.493Z,0.80
2023-02-22T03:05:19.901Z,0.80
2023-02-22T03:08:23.660Z,0.82
2023-02-22T03:11:01.986Z,0.90
2023-02-22T03:13:41.262Z,0.70
2023-02-22T03:16:07.867Z,0.85
2023-02-22T03:18:40.421Z,0.80
2023-02-22T03:21:25.869Z,0.70
2023-02-22T03:24:07.443Z,0.82
2023-02-22T03:27:03.218Z,0.90
2023-02-22T03:29:35.783Z,1.00
2023-02-22T03:32:03.916Z,0.60
2023-02-22T03:34:40.915Z,0.80
2023-02-22T03:37:14.492Z,0.90
2023-02-22T03:39:42.127Z,0.77
2023-02-22T03:42:09.624Z,1.00
2023-02-22T03:44:38.105Z,0.75
2023-02-22T03:47:07.026Z,0.65
2023-02-22T03:49:40.882Z,1.15
2023-02-22T03:52:07.825Z,0.68
2023-02-22T03:54:35.304Z,0.90
2023-02-22T03:57:08.320Z,0.98
2023-02-22T03:59:35.370Z,0.82
2023-02-22T04:02:02.214Z,0.90
2023-02-22T04:04:28.884Z,1.00
2023-02-22T04:06:55.553Z,0.95
2023-02-22T04:09:22.283Z,0.88
2023-02-22T04:11:48.926Z,1.13
2023-02-22T04:14:15.941Z,0.60
2023-02-22T04:16:42.578Z,0.90
2023-02-22T04:19:09.253Z,0.70
2023-02-22T04:21:35.837Z,0.80
2023-02-22T04:24:02.444Z,0.80
2023-02-22T04:26:29.105Z,0.90
2023-02-22T04:28:55.927Z,0.60
2023-02-22T04:31:22.719Z,0.80
2023-02-22T04:33:49.405Z,0.90
2023-02-22T04:36:16.312Z,0.80
2023-02-22T04:38:43.303Z,0.80
2023-02-22T04:41:10.089Z,0.98
2023-02-22T04:43:36.641Z,0.60
2023-02-22T04:46:04.543Z,0.75
2023-02-22T04:48:31.142Z,0.70
2023-02-22T04:50:57.742Z,1.00
2023-02-22T04:53:24.349Z,0.82
2023-02-22T04:55:51.124Z,0.80
2023-02-22T04:58:17.782Z,0.68
2023-02-22T05:00:44.541Z,0.82
2023-02-22T05:03:11.161Z,1.00
2023-02-22T05:05:37.766Z,1.00
2023-02-22T05:08:04.527Z,0.80
2023-02-22T05:10:31.318Z,0.80
2023-02-22T05:12:57.878Z,0.90
2023-02-22T05:15:25.494Z,0.98
2023-02-22T05:17:52.715Z,0.70
2023-02-22T05:20:24.696Z,0.77
2023-02-22T05:22:52.136Z,0.88
2023-02-22T05:25:20.502Z,0.80
2023-02-22T05:27:53.696Z,0.80
2023-02-22T05:30:24.428Z,0.57
2023-02-22T05:32:51.329Z,0.77
2023-02-22T05:35:18.547Z,0.70
2023-02-22T05:37:45.377Z,0.70
2023-02-22T05:40:12.036Z,0.85
2023-02-22T05:42:38.656Z,0.60
2023-02-22T05:45:05.313Z,0.90
2023-02-22T05:47:31.813Z,0.88
2023-02-22T05:49:58.393Z,1.00
2023-02-22T05:52:24.915Z,0.73
2023-02-22T05:54:51.413Z,0.73
2023-02-22T05:57:18.005Z,0.73
2023-02-22T05:59:44.611Z,0.73
2023-02-22T06:02:11.288Z,0.60
2023-02-22T06:04:38.007Z,0.65
2023-02-22T06:07:04.573Z,0.80
2023-02-22T06:09:31.659Z,0.88
2023-02-22T06:11:58.248Z,1.00
2023-02-22T06:14:24.737Z,0.90
2023-02-22T06:16:54.680Z,0.73
2023-02-22T06:19:21.380Z,0.70
2023-02-22T06:21:51.420Z,0.77
2023-02-22T06:24:18.399Z,1.08
2023-02-22T06:26:45.203Z,0.82
2023-02-22T06:29:11.816Z,0.65
2023-02-22T06:31:38.505Z,0.90
2023-02-22T06:34:05.724Z,0.98
2023-02-22T06:36:32.271Z,0.70
2023-02-22T06:38:58.765Z,0.75
2023-02-22T06:41:25.296Z,0.80
2023-02-22T06:43:52.059Z,0.90
2023-02-22T06:46:19.526Z,0.70
2023-02-22T06:48:46.178Z,0.70
2023-02-22T06:51:12.732Z,0.80
2023-02-22T06:53:39.291Z,0.70
2023-02-22T06:56:06.066Z,0.90
2023-02-22T06:58:32.501Z,0.80
2023-02-22T07:00:59.061Z,0.80
2023-02-22T07:03:25.766Z,0.93
2023-02-22T07:05:52.355Z,0.90
2023-02-22T07:08:18.860Z,1.05
2023-02-22T07:10:45.455Z,0.77
2023-02-22T07:13:12.012Z,1.20
2023-02-22T07:15:38.661Z,0.93
2023-02-22T07:18:05.792Z,1.08
2023-02-22T07:20:32.961Z,1.10
2023-02-22T07:22:59.713Z,1.20
2023-02-22T07:25:26.333Z,0.95
2023-02-22T07:27:53.051Z,1.05
2023-02-22T07:30:19.687Z,1.33
2023-02-22T07:32:46.939Z,0.90
2023-02-22T07:35:21.041Z,1.27
2023-02-22T07:37:48.292Z,1.27
2023-02-22T07:40:15.413Z,0.98
2023-02-22T07:42:52.037Z,1.08
2023-02-22T07:45:18.871Z,1.35
2023-02-22T07:47:48.654Z,1.08
2023-02-22T07:50:16.485Z,1.10
2023-02-22T07:52:49.850Z,0.90
2023-02-22T07:55:17.438Z,1.40
2023-02-22T07:57:45.661Z,1.35
2023-02-22T08:00:14.596Z,0.82
2023-02-22T08:02:42.484Z,0.95
2023-02-22T08:05:10.869Z,1.35
2023-02-22T08:07:38.030Z,0.80
2023-02-22T08:10:06.770Z,1.10
2023-02-22T08:12:37.320Z,0.90
2023-02-22T08:15:04.760Z,1.10
2023-02-22T08:17:31.373Z,1.13
2023-02-22T08:19:58.066Z,1.02
2023-02-22T08:22:24.591Z,0.95
2023-02-22T08:24:54.376Z,1.25
2023-02-22T08:27:27.822Z,1.10
2023-02-22T08:29:54.900Z,1.15
2023-02-22T08:32:22.078Z,0.98
2023-02-22T08:34:48.734Z,0.90
2023-02-22T08:37:16.492Z,1.20
2023-02-22T08:39:43.108Z,0.95
2023-02-22T08:42:10.329Z,1.30
2023-02-22T08:44:37.622Z,1.10
2023-02-22T08:47:04.438Z,1.15
2023-02-22T08:49:31.024Z,0.90
2023-02-22T08:51:57.621Z,1.05
2023-02-22T08:54:24.202Z,1.02
2023-02-22T08:56:50.698Z,1.15
2023-02-22T08:59:17.501Z,0.95
2023-02-22T09:01:44.123Z,1.23
2023-02-22T09:04:10.877Z,1.17
2023-02-22T09:06:40.006Z,1.15
2023-02-22T09:09:06.539Z,1.30
2023-02-22T09:11:33.078Z,1.27
2023-02-22T09:13:59.673Z,0.98
2023-02-22T09:16:26.239Z,0.98
2023-02-22T09:18:52.747Z,0.93
2023-02-22T09:21:19.493Z,1.30
2023-02-22T09:23:47.183Z,1.10
2023-02-22T09:26:16.169Z,1.30
2023-02-22T09:28:42.700Z,1.10
2023-02-22T09:31:09.286Z,0.98
2023-02-22T09:33:36.104Z,1.27
2023-02-22T09:36:02.889Z,1.10
2023-02-22T09:38:30.354Z,1.17
2023-02-22T09:41:06.203Z,1.20
2023-02-22T09:43:32.736Z,0.98
2023-02-22T09:46:20.986Z,1.15
2023-02-22T09:48:59.679Z,1.00
2023-02-22T09:51:35.901Z,1.25
2023-02-22T09:54:03.638Z,1.20
2023-02-22T09:56:31.314Z,1.00
2023-02-22T09:59:00.990Z,1.23
2023-02-22T10:01:27.487Z,1.08
2023-02-22T10:04:18.671Z,1.23
2023-02-22T10:07:02.647Z,1.38
2023-02-22T10:09:30.457Z,0.98
2023-02-22T10:12:02.692Z,0.95
2023-02-22T10:14:44.005Z,1.05
2023-02-22T10:17:20.008Z,1.20
2023-02-22T10:19:46.565Z,0.93
2023-02-22T10:22:16.154Z,0.98
2023-02-22T10:24:42.621Z,1.13
2023-02-22T10:27:15.688Z,0.95
2023-02-22T10:29:44.862Z,0.90
2023-02-22T10:32:20.612Z,0.90
2023-02-22T10:34:53.487Z,1.17
2023-02-22T10:37:28.051Z,1.00
2023-02-22T10:40:17.416Z,0.82
2023-02-22T10:42:44.367Z,0.88
2023-02-22T10:45:32.425Z,1.25
2023-02-22T10:48:00.965Z,0.90
2023-02-22T10:50:29.658Z,0.98
2023-02-22T10:52:56.160Z,0.90
2023-02-22T10:55:22.801Z,1.10
2023-02-22T10:57:50.947Z,1.00
2023-02-22T11:00:19.864Z,1.15
2023-02-22T11:02:56.187Z,1.15
2023-02-22T11:05:41.289Z,0.98
2023-02-22T11:08:26.439Z,0.88
2023-02-22T11:10:54.527Z,1.10
2023-02-22T11:13:28.312Z,0.68
2023-02-22T11:15:57.873Z,1.00
2023-02-22T11:18:26.462Z,0.93
2023-02-22T11:21:00.033Z,1.10
2023-02-22T11:23:26.626Z,1.00
2023-02-22T11:26:01.780Z,1.05
2023-02-22T11:28:33.108Z,1.00
2023-02-22T11:31:15.274Z,0.80
2023-02-22T11:33:48.155Z,1.10
2023-02-22T11:36:29.137Z,1.05
2023-02-22T11:38:58.494Z,1.20
2023-02-22T11:41:34.255Z,0.80
2023-02-22T11:44:14.254Z,1.00
2023-02-22T11:46:41.602Z,0.80
2023-02-22T11:49:12.881Z,1.10
2023-02-22T11:51:39.405Z,1.15
2023-02-22T11:54:12.786Z,1.00
2023-02-22T11:56:42.769Z,0.80
2023-02-22T11:59:15.261Z,1.13
2023-02-22T12:01:46.503Z,1.02
2023-02-22T12:04:33.293Z,1.00
2023-02-22T12:07:15.502Z,0.80
2023-02-22T12:09:54.149Z,1.23
2023-02-22T12:12:29.876Z,1.40
2023-02-22T12:15:02.562Z,1.05
2023-02-22T12:17:35.081Z,1.17
2023-02-22T12:20:07.025Z,0.90
2023-02-22T12:22:35.502Z,1.20
2023-02-22T12:25:20.043Z,1.27
2023-02-22T12:27:49.526Z,1.23
2023-02-22T12:30:28.964Z,1.20
2023-02-22T12:32:59.800Z,1.20
2023-02-22T12:35:35.033Z,1.23
2023-02-22T12:38:13.819Z,1.40
2023-02-22T12:40:45.200Z,1.58
2023-02-22T12:43:41.933Z,1.00
2023-02-22T12:46:09.111Z,1.48
2023-02-22T12:48:35.733Z,1.38
2023-02-22T12:51:07.839Z,1.60
2023-02-22T12:53:40.270Z,1.30
2023-02-22T12:56:25.598Z,1.25
2023-02-22T12:58:59.034Z,1.50
2023-02-22T13:01:37.809Z,1.50
2023-02-22T13:04:19.388Z,1.20
2023-02-22T13:06:50.324Z,1.50
2023-02-22T13:09:38.600Z,1.40
2023-02-22T13:12:12.252Z,1.38
2023-02-22T13:14:41.692Z,1.35
2023-02-22T13:17:13.561Z,1.17
2023-02-22T13:19:43.086Z,1.33
2023-02-22T13:22:09.650Z,1.40
2023-02-22T13:24:59.446Z,1.17
2023-02-22T13:27:48.940Z,1.35
2023-02-22T13:30:21.369Z,1.40
2023-02-22T13:32:57.122Z,1.20
2023-02-22T13:35:42.241Z,1.42
2023-02-22T13:38:21.403Z,1.50
2023-02-22T13:40:57.886Z,1.40
2023-02-22T13:43:30.598Z,1.83
2023-02-22T13:46:12.973Z,1.63
2023-02-22T13:48:42.951Z,1.60
2023-02-22T13:51:13.470Z,1.63
2023-02-22T13:53:43.955Z,1.63
2023-02-22T13:56:12.072Z,1.85
2023-02-22T13:58:59.325Z,1.35
2023-02-22T14:01:55.485Z,1.73
2023-02-22T14:04:22.116Z,1.88
2023-02-22T14:06:49.018Z,1.70
2023-02-22T14:09:19.222Z,2.22
2023-02-22T14:11:47.094Z,1.65
2023-02-22T14:14:14.778Z,1.90
2023-02-22T14:16:41.416Z,1.77
2023-02-22T14:19:13.986Z,1.88
2023-02-22T14:22:03.834Z,1.77
2023-02-22T14:24:51.197Z,1.70
2023-02-22T14:27:17.931Z,1.88
2023-02-22T14:29:58.306Z,1.65
2023-02-22T14:32:31.865Z,1.65
2023-02-22T14:35:00.858Z,1.88
2023-02-22T14:37:29.470Z,2.08
2023-02-22T14:40:18.490Z,1.92
2023-02-22T14:42:49.116Z,1.63
2023-02-22T14:45:29.248Z,2.00
2023-02-22T14:48:13.753Z,2.05
2023-02-22T14:50:40.257Z,1.80
2023-02-22T14:53:18.305Z,2.40
2023-02-22T14:55:52.173Z,1.95
2023-02-22T14:58:23.493Z,2.47
2023-02-22T15:00:53.065Z,2.05
2023-02-22T15:03:37.239Z,2.00
2023-02-22T15:06:14.981Z,1.70
2023-02-22T15:08:42.395Z,2.08
2023-02-22T15:11:26.785Z,2.35
2023-02-22T15:13:54.552Z,2.15
2023-02-22T15:16:22.629Z,2.40
2023-02-22T15:18:59.938Z,2.28
2023-02-22T15:21:27.892Z,2.33
2023-02-22T15:24:05.017Z,2.42
2023-02-22T15:26:35.414Z,2.10
2023-02-22T15:29:02.469Z,2.45
2023-02-22T15:31:36.393Z,2.20
2023-02-22T15:34:15.001Z,2.00
2023-02-22T15:36:42.618Z,2.17
2023-02-22T15:39:18.990Z,2.25
2023-02-22T15:41:45.798Z,2.50
2023-02-22T15:44:24.170Z,2.10
2023-02-22T15:46:52.360Z,2.28
2023-02-22T15:49:20.469Z,2.60
2023-02-22T15:51:51.694Z,2.63
2023-02-22T15:54:26.844Z,2.30
2023-02-22T15:56:56.776Z,2.30
2023-02-22T15:59:29.810Z,2.10
2023-02-22T16:01:58.423Z,2.17
2023-02-22T16:04:26.797Z,2.10
2023-02-22T16:07:02.466Z,2.38
2023-02-22T16:09:30.426Z,2.00
2023-02-22T16:12:16.232Z,2.50
2023-02-22T16:14:42.907Z,1.92
2023-02-22T16:17:28.953Z,2.35
2023-02-22T16:19:55.581Z,2.20
2023-02-22T16:22:26.859Z,2.33
2023-02-22T16:24:54.652Z,2.10
2023-02-22T16:27:23.189Z,2.40
2023-02-22T16:30:05.929Z,2.38
2023-02-22T16:32:36.821Z,2.05
2023-02-22T16:35:03.541Z,2.33
2023-02-22T16:37:30.200Z,2.33
2023-02-22T16:39:56.886Z,2.15
2023-02-22T16:42:26.400Z,2.30
2023-02-22T16:44:53.101Z,2.10
2023-02-22T16:47:20.216Z,2.58
2023-02-22T16:49:52.215Z,2.22
2023-02-22T16:52:19.073Z,2.30
2023-02-22T16:54:46.364Z,2.28
2023-02-22T16:57:18.022Z,2.35
2023-02-22T16:59:45.192Z,2.00
2023-02-22T17:02:15.592Z,2.50
2023-02-22T17:04:44.212Z,2.20
2023-02-22T17:07:10.855Z,2.03
2023-02-22T17:09:39.576Z,2.25
2023-02-22T17:12:06.393Z,2.30
2023-02-22T17:14:34.272Z,2.35
2023-02-22T17:17:00.874Z,2.30
2023-02-22T17:19:27.727Z,2.20
2023-02-22T17:21:54.513Z,2.10
2023-02-22T17:24:23.126Z,2.20
2023-02-22T17:26:50.075Z,2.35
2023-02-22T17:29:18.002Z,2.03
2023-02-22T17:31:44.817Z,2.00
2023-02-22T17:34:11.560Z,2.28
2023-02-22T17:36:38.203Z,2.10
2023-02-22T17:39:05.485Z,2.30
2023-02-22T17:41:32.163Z,2.42
2023-02-22T17:43:58.716Z,1.80
2023-02-22T17:46:25.416Z,1.70
2023-02-22T17:48:55.038Z,2.10
2023-02-22T17:51:22.498Z,1.65
2023-02-22T17:53:49.009Z,2.17
2023-02-22T17:56:18.700Z,1.98
2023-02-22T17:58:46.586Z,1.90
2023-02-22T18:01:27.290Z,1.98
2023-02-22T18:03:54.685Z,2.00
2023-02-22T18:06:25.157Z,1.90
2023-02-22T18:08:56.590Z,2.00
2023-02-22T18:11:26.527Z,2.03
2023-02-22T18:13:57.078Z,1.85
2023-02-22T18:16:26.091Z,1.98
2023-02-22T18:18:53.173Z,2.10
2023-02-22T18:21:19.696Z,1.77
2023-02-22T18:23:46.231Z,1.98
2023-02-22T18:26:17.161Z,1.98
2023-02-22T18:28:44.199Z,1.95
2023-02-22T18:31:14.726Z,2.03
2023-02-22T18:33:43.426Z,1.85
2023-02-22T18:36:11.534Z,1.83
2023-02-22T18:38:42.881Z,1.85
2023-02-22T18:41:10.684Z,1.65
2023-02-22T18:43:37.246Z,1.58
2023-02-22T18:46:07.681Z,2.03
2023-02-22T18:48:34.503Z,2.00
2023-02-22T18:51:01.916Z,1.80
2023-02-22T18:53:29.024Z,2.40
2023-02-22T18:55:55.754Z,2.00
2023-02-22T18:58:22.328Z,2.03
2023-02-22T19:00:49.134Z,1.75
2023-02-22T19:03:15.931Z,1.92
2023-02-22T19:05:42.537Z,2.10
2023-02-22T19:08:11.413Z,1.75
2023-02-22T19:10:38.822Z,1.90
2023-02-22T19:13:10.775Z,2.10
2023-02-22T19:15:38.103Z,1.95
2023-02-22T19:18:04.814Z,1.90
2023-02-22T19:20:33.323Z,1.75
2023-02-22T19:23:00.414Z,1.90
2023-02-22T19:25:26.908Z,2.13
2023-02-22T19:27:59.615Z,2.00
2023-02-22T19:30:26.221Z,2.00
2023-02-22T19:32:52.726Z,2.00
2023-02-22T19:35:28.339Z,2.00
2023-02-22T19:37:58.229Z,1.65
2023-02-22T19:40:25.971Z,1.73
2023-02-22T19:42:53.379Z,1.58
2023-02-22T19:45:22.282Z,2.05
2023-02-22T19:47:52.879Z,1.60
2023-02-22T19:50:21.232Z,1.85
2023-02-22T19:52:49.866Z,1.83
2023-02-22T19:55:16.377Z,1.42
2023-02-22T19:57:46.503Z,2.28
2023-02-22T20:00:13.988Z,1.90
2023-02-22T20:02:40.980Z,1.98
2023-02-22T20:05:13.320Z,1.95
2023-02-22T20:07:40.025Z,1.98
2023-02-22T20:10:07.730Z,1.90
2023-02-22T20:12:34.538Z,1.83
2023-02-22T20:15:01.161Z,1.92
2023-02-22T20:17:28.134Z,2.05
2023-02-22T20:19:54.738Z,2.03
2023-02-22T20:22:21.709Z,2.05
2023-02-22T20:24:49.098Z,1.80
2023-02-22T20:27:16.598Z,2.00
2023-02-22T20:29:43.079Z,1.88
2023-02-22T20:32:11.663Z,2.03
2023-02-22T20:34:38.396Z,1.55
2023-02-22T20:37:04.910Z,1.88
2023-02-22T20:39:31.660Z,1.75
2023-02-22T20:42:03.615Z,1.85
2023-02-22T20:44:30.504Z,1.80
2023-02-22T20:46:57.071Z,1.85
2023-02-22T20:49:23.646Z,2.03
2023-02-22T20:51:50.442Z,1.90
2023-02-22T20:54:18.319Z,2.10
2023-02-22T20:56:45.841Z,2.80
2023-02-22T20:59:13.530Z,3.35
2023-02-22T21:01:40.198Z,3.50
2023-02-22T21:04:08.790Z,4.20
2023-02-22T21:06:36.963Z,3.30
2023-02-22T21:09:07.805Z,3.90
2023-02-22T21:11:36.585Z,3.80
2023-02-22T21:14:04.961Z,3.90
2023-02-22T21:16:33.903Z,3.90
2023-02-22T21:19:04.384Z,3.92
2023-02-22T21:21:32.240Z,4.18
2023-02-22T21:24:03.325Z,4.40
2023-02-22T21:26:34.116Z,4.38
2023-02-22T21:29:02.036Z,4.15
2023-02-22T21:31:28.704Z,4.28
2023-02-22T21:33:56.476Z,4.10
2023-02-22T21:36:25.572Z,4.32
2023-02-22T21:38:56.995Z,4.65
2023-02-22T21:41:32.324Z,4.68
2023-02-22T21:43:59.394Z,4.38
2023-02-22T21:46:27.079Z,3.67
2023-02-22T21:48:53.645Z,3.88
2023-02-22T21:51:25.433Z,3.15
2023-02-22T21:53:54.741Z,3.13
2023-02-22T21:56:24.397Z,2.95
2023-02-22T21:58:58.078Z,3.28
2023-02-22T22:01:35.334Z,3.53
2023-02-22T22:04:02.662Z,3.10
2023-02-22T22:06:30.233Z,3.08
2023-02-22T22:08:57.575Z,3.28
2023-02-22T22:11:25.262Z,2.90
2023-02-22T22:13:53.202Z,3.63
2023-02-22T22:16:20.467Z,3.15
2023-02-22T22:18:47.092Z,3.03
2023-02-22T22:21:17.425Z,3.47
2023-02-22T22:23:47.191Z,2.97
2023-02-22T22:26:15.268Z,2.80
2023-02-22T22:28:43.451Z,3.05
2023-02-22T22:31:10.925Z,3.63
2023-02-22T22:33:38.047Z,3.10
2023-02-22T22:36:06.090Z,3.20
2023-02-22T22:38:33.321Z,3.40
2023-02-22T22:41:01.159Z,3.33
2023-02-22T22:43:30.550Z,3.20
2023-02-22T22:46:02.892Z,2.90
2023-02-22T22:48:31.479Z,2.97
2023-02-22T22:51:02.702Z,3.05
2023-02-22T22:53:30.686Z,2.95
2023-02-22T22:56:03.828Z,2.78
2023-02-22T22:58:31.338Z,2.95
2023-02-22T23:01:01.771Z,2.50
2023-02-22T23:03:28.555Z,3.28
2023-02-22T23:05:55.229Z,2.95
2023-02-22T23:08:29.336Z,2.88
2023-02-22T23:10:56.874Z,2.92
2023-02-22T23:13:23.438Z,2.83
2023-02-22T23:15:50.998Z,2.85
2023-02-22T23:18:20.529Z,2.65
2023-02-22T23:20:47.879Z,3.05
2023-02-22T23:23:14.910Z,2.75
2023-02-22T23:25:41.877Z,3.13
2023-02-22T23:28:14.801Z,2.97
2023-02-22T23:30:42.043Z,2.97
2023-02-22T23:33:08.700Z,2.90
2023-02-22T23:35:35.319Z,2.67
2023-02-22T23:38:01.849Z,3.20
2023-02-22T23:40:29.144Z,3.05
2023-02-22T23:42:55.754Z,2.92
2023-02-22T23:45:23.774Z,3.00
2023-02-22T23:47:54.926Z,2.70
2023-02-22T23:50:23.248Z,2.30
2023-02-22T23:52:50.882Z,2.08
2023-02-22T23:55:20.818Z,3.25
2023-02-22T23:57:47.858Z,3.05
